マルセイユ の空港の天気 - METARとTAF

マルセイユ・プロヴァンス空港 ( LFML / MRS ) - フランス マルセイユ
飛行場実況気象(Metar)
観測時間05/26 03:00 CEST (05/26 01:00 UTC)
風向・風速北西 6m/s
視程10km以上
天気現象
なし
気温21℃
湿度43%
気圧1017hPa
METARLFML 260100Z AUTO 32012KT CAVOK 21/08 Q1017 NOSIG
過去の天気等 Google飛行場航空写真 Wunderground天気予報

過去48時間のMETAR

飛行場予報(TAF)
発表時間: 5/25 22:00 CEST (5/25 20:00 UTC)
予報対象時間: 25日23時 CEST ~ 27日5時 CEST
風向・風速北西 5m/s
視程10km以上
なし
26日10時 CEST ~ 26日17時 CEST に一時的に
風向・風速西 3m/s
天気現象弱いしゅう雨
少しの塔状積雲 雲底高度 1830m
26日18時 CEST ~ 26日23時 CEST に一時的に
風向・風速不定 3m/s
TAF LFML 252000Z 2521/2703 32010KT CAVOK TX29/2615Z TN17/2604Z
TEMPO 2608/2615 26005KT -SHRA FEW060TCU
TEMPO 2616/2621 VRB05KT